METAR Data
IDs: Format: Raw Decoded Include TAF

Data at: 1320 UTC 24 May 2019

ENOV 241250Z 18005KT 100V250 9999 FEW006 FEW012TCU SCT019 BKN040 13/09 Q1007 RMK WIND 2175FT 28012KT